map of ERZ home
ERZ - Airport
Location
City:  Erzurum, Erzurum, Turkey
ICAO:LTCE
IATA:ERZ

Details
Type:Airport (Aerodrome, Airfield)
Use:Public/Civil, Military
Latitude:3957'23"N (39.956501)
Longitude:4110'13"E (41.170166)
Datum:WGS 1984
Elevation:5763 ft (1757 m)
Variation:6.19E (WMM2015 magnetic declination)
0.08 annual change
Runways:3
Longest:12500 × 98 ft (3810 × 30 m), paved

Time
Time Zone:UTC+3
Local Time:

Weather
METAR:LTCE 131750Z 00000KT 9999 SCT040 M09/M10 Q1021 NOSIG RMK RWY08R VRB01KT RWY26R VRB02KT RWY08L VRB02KT
TAF:LTCE 131040Z 1312/1412 24009KT 9999 SCT040
BECMG 1319/1321 4000 BR NSC
BECMG 1321/1323 1200 BCFG PROB40
TEMPO 1323/1403 0700 FZFG VV002
BECMG 1403/1405 2000 BR SCT035 BKN070
BECMG 1405/1407 4000

Related Locations
Nearby:
Farthest:GMR: 11245 mi / 18097 km
Mangareva [Totegegie], Gambier Islands, PF

Find:

   beyond  
but within

Other Information
Maps:
NOTAMs:
Links:
Sources:

  
  • flag of Turkey
  

Sectional Chart

Flight Planning
at skyvector.com

Satellite Image

Google Maps Satellite view

 

Copyright © 2004-2018 Karl L. Swartz. All rights reserved.
The Great Circle Mapper name and logo are trademarks of the Great Circle Mapper.
All other trademarks mentioned herein belong to their respective owners.
Please see credits for attibutions and further copyright information.

  Follow gcmap on Facebook Follow gcmap on Twitter Follow gcmap on Google+ GCmap on LinkedIn

hCard Microformat

Geo Microformat